Time;durP1;ratioP1;P1;durP2;ratioP2;P2;SDS_P1;SDS_P2;PMS_P1;PMS_P2;Temp;Humidity;BMP_temperature;BMP_pressure;BME280_temperature;BME280_humidity;BME280_pressure;Samples;Min_cycle;Max_cycle;Signal;HPM_P1;HPM_P2
2023/06/03 00:02:00;;;;;;;3.65;2.63;;;24.60;99.90;;;;;;5051482;28;20486;-56
2023/06/03 00:05:09;;;;;;;3.20;2.90;;;24.60;99.90;;;;;;5053505;28;20031;-57
2023/06/03 00:07:34;;;;;;;3.30;3.00;;;24.60;99.90;;;;;;5051300;28;20029;-55
2023/06/03 00:10:00;;;;;;;4.38;2.90;;;24.60;99.90;;;;;;5051992;28;20028;-55
2023/06/03 00:12:26;;;;;;;4.78;3.22;;;24.60;99.90;;;;;;5051551;28;20131;-56
2023/06/03 00:14:51;;;;;;;3.60;2.95;;;24.60;99.90;;;;;;5051231;28;20493;-54
2023/06/03 00:17:17;;;;;;;5.78;3.03;;;24.60;99.90;;;;;;5053352;28;20394;-57
2023/06/03 00:19:43;;;;;;;4.70;3.17;;;24.60;99.90;;;;;;5049704;28;20100;-56
2023/06/03 00:22:08;;;;;;;3.95;3.50;;;24.60;99.90;;;;;;5051342;28;20462;-54
2023/06/03 00:24:34;;;;;;;4.00;3.35;;;24.60;99.90;;;;;;5052110;28;20462;-56
2023/06/03 00:27:00;;;;;;;6.15;3.53;;;24.60;99.90;;;;;;5052900;28;20091;-58
2023/06/03 00:29:26;;;;;;;3.63;3.20;;;24.60;99.90;;;;;;5051386;28;20108;-58
2023/06/03 00:31:52;;;;;;;4.18;3.72;;;24.60;99.90;;;;;;5050857;28;20392;-57
2023/06/03 00:34:21;;;;;;;3.25;2.95;;;24.60;99.90;;;;;;5043548;28;20031;-55
2023/06/03 00:36:47;;;;;;;3.88;3.38;;;24.60;99.90;;;;;;5045583;28;20037;-54
2023/06/03 00:39:12;;;;;;;4.85;4.32;;;24.50;99.90;;;;;;5051884;28;20413;-56
2023/06/03 00:41:38;;;;;;;3.28;2.90;;;24.50;99.90;;;;;;5052717;28;20059;-55
2023/06/03 00:44:04;;;;;;;3.78;3.45;;;24.50;99.90;;;;;;5051989;28;20108;-56
2023/06/03 00:46:33;;;;;;;4.80;4.25;;;24.50;99.90;;;;;;5052804;28;20493;-54
2023/06/03 00:48:59;;;;;;;5.75;4.90;;;24.40;99.90;;;;;;5050644;28;20025;-59
2023/06/03 00:51:33;;;;;;;5.85;4.90;;;24.40;99.90;;;;;;5047637;28;20029;-57
2023/06/03 00:53:59;;;;;;;6.22;5.25;;;24.40;99.90;;;;;;5041500;28;20108;-54
2023/06/03 00:56:28;;;;;;;6.25;5.68;;;24.40;99.90;;;;;;5044647;28;20068;-56
2023/06/03 00:58:54;;;;;;;6.43;5.82;;;24.40;99.90;;;;;;5036970;28;20025;-57
2023/06/03 01:01:21;;;;;;;6.97;6.38;;;24.40;99.90;;;;;;5051933;28;20474;-57
2023/06/03 01:03:47;;;;;;;6.57;5.85;;;24.40;99.90;;;;;;5051833;28;20047;-56
2023/06/03 01:06:34;;;;;;;9.32;7.45;;;24.40;99.90;;;;;;5052709;28;20014;-55
2023/06/03 01:09:14;;;;;;;7.65;6.80;;;24.30;99.90;;;;;;5048358;28;20477;-56
2023/06/03 01:11:44;;;;;;;7.43;6.80;;;24.40;99.90;;;;;;5043093;28;20029;-55
2023/06/03 01:14:20;;;;;;;7.20;6.07;;;24.40;99.90;;;;;;5049762;28;20112;-54
2023/06/03 01:16:48;;;;;;;6.75;5.97;;;24.40;99.90;;;;;;5051638;28;20049;-57
2023/06/03 01:19:38;;;;;;;5.97;5.47;;;24.30;99.90;;;;;;5054043;28;20017;-56
2023/06/03 01:25:45;;;;;;;7.10;5.60;;;24.30;99.90;;;;;;5047530;28;20042;-57
2023/06/03 01:28:10;;;;;;;6.22;5.63;;;24.20;99.90;;;;;;5055303;28;20025;-54
2023/06/03 01:30:36;;;;;;;6.82;6.13;;;24.20;99.90;;;;;;5053139;28;20048;-56
2023/06/03 01:33:03;;;;;;;7.43;6.63;;;24.00;99.90;;;;;;5054947;28;20048;-56
2023/06/03 01:35:29;;;;;;;8.95;6.60;;;23.80;99.90;;;;;;5056125;28;20021;-58
2023/06/03 01:37:58;;;;;;;7.50;6.15;;;23.90;99.90;;;;;;5054922;28;20048;-57
2023/06/03 01:40:26;;;;;;;6.70;6.00;;;23.90;99.90;;;;;;5053446;28;20078;-56
2023/06/03 01:42:51;;;;;;;7.05;5.70;;;23.90;99.90;;;;;;5055064;28;20063;-56
2023/06/03 01:45:18;;;;;;;7.53;5.85;;;23.80;99.90;;;;;;5054288;28;20049;-56
2023/06/03 01:47:45;;;;;;;10.45;5.97;;;23.80;99.90;;;;;;5041624;28;20079;-57
2023/06/03 01:50:10;;;;;;;8.23;6.15;;;23.60;99.90;;;;;;5051612;28;20028;-56
2023/06/03 01:52:37;;;;;;;6.60;5.93;;;23.60;99.90;;;;;;5052555;28;20037;-54
2023/06/03 01:55:28;;;;;;;6.30;5.75;;;23.40;1.00;;;;;;5055802;28;20021;-54
2023/06/03 01:57:54;;;;;;;7.43;5.63;;;23.30;1.00;;;;;;5052764;28;20133;-56
2023/06/03 02:00:20;;;;;;;7.50;5.85;;;23.40;1.00;;;;;;5053594;28;20039;-57
2023/06/03 02:02:46;;;;;;;6.22;5.45;;;23.20;1.00;;;;;;5054697;28;20083;-58
2023/06/03 02:05:11;;;;;;;7.55;6.03;;;23.10;1.00;;;;;;5055954;28;20028;-58
2023/06/03 02:07:46;;;;;;;6.00;5.10;;;23.10;1.00;;;;;;5054263;28;20029;-56
2023/06/03 02:10:11;;;;;;;5.78;5.22;;;23.10;1.00;;;;;;5052130;28;20041;-58
2023/06/03 02:12:37;;;;;;;6.93;5.50;;;23.00;1.00;;;;;;5055370;28;20090;-54
2023/06/03 02:15:03;;;;;;;8.02;5.82;;;23.00;1.00;;;;;;5052926;28;20070;-57
2023/06/03 02:17:29;;;;;;;6.35;5.75;;;22.90;1.00;;;;;;5055586;28;20036;-57
2023/06/03 02:19:56;;;;;;;6.95;5.80;;;22.80;1.00;;;;;;5052481;28;20029;-57
2023/06/03 02:22:22;;;;;;;6.63;5.47;;;22.70;1.00;;;;;;5041285;28;20034;-57
2023/06/03 02:24:49;;;;;;;8.27;6.05;;;22.70;1.00;;;;;;5055105;28;20126;-52
2023/06/03 02:27:16;;;;;;;6.88;6.28;;;22.70;1.00;;;;;;5053472;28;20033;-56
2023/06/03 02:29:42;;;;;;;7.07;6.38;;;22.70;1.00;;;;;;5053632;28;20504;-51
2023/06/03 02:32:08;;;;;;;8.40;6.40;;;22.60;1.00;;;;;;5040698;28;20033;-55
2023/06/03 02:34:34;;;;;;;7.55;6.82;;;22.60;1.00;;;;;;5050703;28;20055;-55
2023/06/03 02:36:59;;;;;;;8.25;7.45;;;22.60;1.00;;;;;;5043294;28;20025;-53
2023/06/03 02:39:25;;;;;;;7.55;6.85;;;22.50;1.00;;;;;;5044501;28;20036;-55
2023/06/03 02:41:51;;;;;;;7.68;6.97;;;22.50;1.00;;;;;;5050973;28;20065;-54
2023/06/03 02:44:41;;;;;;;8.00;7.20;;;22.40;1.00;;;;;;5055081;28;20037;-53
2023/06/03 02:47:07;;;;;;;8.23;7.43;;;22.40;1.00;;;;;;5053828;28;20095;-55
2023/06/03 02:49:33;;;;;;;8.80;7.65;;;22.50;1.00;;;;;;5054845;28;20021;-56
2023/06/03 02:51:58;;;;;;;7.95;7.25;;;22.40;1.00;;;;;;5052571;28;20033;-53
2023/06/03 02:54:24;;;;;;;9.57;8.60;;;22.50;1.00;;;;;;5052802;28;20033;-56
2023/06/03 02:56:50;;;;;;;8.18;7.47;;;22.50;1.00;;;;;;5054820;28;20077;-55
2023/06/03 02:59:15;;;;;;;7.93;7.22;;;22.50;1.00;;;;;;5052255;28;20028;-56
2023/06/03 03:01:41;;;;;;;8.90;8.00;;;22.50;1.00;;;;;;5052553;28;20033;-55
2023/06/03 03:04:07;;;;;;;8.55;7.82;;;22.50;1.00;;;;;;5053392;28;20024;-54
2023/06/03 03:06:37;;;;;;;9.05;8.15;;;22.50;1.00;;;;;;5036159;28;20029;-55
2023/06/03 03:09:03;;;;;;;9.57;8.65;;;22.40;1.00;;;;;;5052402;28;20041;-56
2023/06/03 03:11:29;;;;;;;11.80;9.68;;;22.50;1.00;;;;;;5052488;28;20024;-57
2023/06/03 03:13:55;;;;;;;10.15;9.15;;;22.50;1.00;;;;;;5053703;28;20123;-56
2023/06/03 03:16:21;;;;;;;11.80;10.60;;;22.40;1.00;;;;;;5041285;28;20081;-57
2023/06/03 03:18:47;;;;;;;11.68;10.52;;;22.40;1.00;;;;;;5045353;28;20064;-53
2023/06/03 03:21:13;;;;;;;12.23;11.13;;;22.50;1.00;;;;;;5045599;28;20064;-54
2023/06/03 03:23:38;;;;;;;11.60;10.45;;;22.40;1.00;;;;;;5042960;28;20025;-56
2023/06/03 03:26:07;;;;;;;10.90;10.00;;;22.40;1.00;;;;;;5050966;28;20490;-51
2023/06/03 03:28:33;;;;;;;11.10;10.07;;;22.40;1.00;;;;;;5052815;28;20032;-55
2023/06/03 03:30:59;;;;;;;11.85;10.75;;;22.40;1.00;;;;;;5050979;28;20026;-53
2023/06/03 03:33:24;;;;;;;10.38;9.48;;;22.40;1.00;;;;;;5053926;28;20129;-56
2023/06/03 03:35:50;;;;;;;9.75;8.88;;;22.40;1.00;;;;;;5052058;28;20047;-55
2023/06/03 03:38:17;;;;;;;9.93;9.02;;;22.30;1.00;;;;;;5054005;28;20421;-56
2023/06/03 03:40:43;;;;;;;9.25;8.43;;;22.30;1.00;;;;;;5051097;28;20043;-54
2023/06/03 03:43:15;;;;;;;11.98;8.55;;;22.30;1.00;;;;;;5052728;28;20078;-56
2023/06/03 03:45:40;;;;;;;9.48;8.57;;;22.30;1.00;;;;;;5051941;28;20026;-57
2023/06/03 03:48:12;;;;;;;9.95;9.00;;;22.30;1.00;;;;;;5053783;28;20024;-56
2023/06/03 03:50:48;;;;;;;9.27;7.85;;;22.30;1.00;;;;;;5052554;28;20013;-56
2023/06/03 03:53:18;;;;;;;9.43;8.43;;;22.30;1.00;;;;;;5053810;28;20103;-53
2023/06/03 03:55:47;;;;;;;11.65;8.48;;;22.30;1.00;;;;;;5052383;28;20059;-56
2023/06/03 03:58:23;;;;;;;10.45;9.45;;;22.30;1.00;;;;;;5051718;28;20055;-56
2023/06/03 04:00:51;;;;;;;9.57;8.65;;;22.30;1.00;;;;;;5051538;28;20033;-57
2023/06/03 04:03:17;;;;;;;9.27;8.48;;;22.30;1.00;;;;;;5053360;28;20090;-54
2023/06/03 04:05:44;;;;;;;9.13;8.18;;;22.30;1.00;;;;;;5050262;28;20029;-53
2023/06/03 04:08:23;;;;;;;7.85;7.15;;;22.30;1.00;;;;;;5053353;28;20033;-54
2023/06/03 04:10:49;;;;;;;7.47;6.78;;;22.20;1.00;;;;;;5052271;28;20031;-55
2023/06/03 04:13:16;;;;;;;8.15;7.35;;;22.20;1.00;;;;;;5053530;28;20044;-55
2023/06/03 04:15:43;;;;;;;6.68;6.07;;;22.30;1.00;;;;;;5052100;28;20029;-54
2023/06/03 04:18:11;;;;;;;8.07;7.28;;;22.30;1.00;;;;;;5052412;28;20520;-54
2023/06/03 04:20:45;;;;;;;7.00;6.30;;;22.30;1.00;;;;;;5050734;28;20083;-57
2023/06/03 04:23:17;;;;;;;7.32;6.68;;;22.30;1.00;;;;;;5044179;28;20388;-56
2023/06/03 04:25:43;;;;;;;7.43;6.72;;;22.30;1.00;;;;;;5049662;28;20483;-54
2023/06/03 04:28:11;;;;;;;6.85;6.15;;;22.30;1.00;;;;;;5042899;28;20501;-55
2023/06/03 04:30:37;;;;;;;6.47;5.88;;;22.30;1.00;;;;;;5049544;28;20023;-53
2023/06/03 04:33:03;;;;;;;6.28;5.68;;;22.30;1.00;;;;;;5052769;28;20033;-56
2023/06/03 04:35:29;;;;;;;6.53;5.93;;;22.40;1.00;;;;;;5046268;28;20032;-56
2023/06/03 04:37:56;;;;;;;6.00;5.50;;;22.40;1.00;;;;;;5051734;28;20154;-56
2023/06/03 04:40:22;;;;;;;5.93;5.40;;;22.40;1.00;;;;;;5051530;28;20486;-53
2023/06/03 04:42:49;;;;;;;6.85;6.20;;;22.40;1.00;;;;;;5052750;28;20036;-54
2023/06/03 04:45:15;;;;;;;7.07;5.78;;;22.40;1.00;;;;;;5051845;28;20021;-55
2023/06/03 04:47:43;;;;;;;6.80;6.20;;;22.50;1.00;;;;;;5044384;28;20079;-56
2023/06/03 04:50:09;;;;;;;6.10;5.55;;;22.50;1.00;;;;;;5037860;28;20033;-58
2023/06/03 04:52:35;;;;;;;6.13;5.53;;;22.50;1.00;;;;;;5053791;28;20102;-57
2023/06/03 04:55:02;;;;;;;6.07;5.53;;;22.50;1.00;;;;;;5056829;28;20017;-57
2023/06/03 04:57:27;;;;;;;6.47;5.88;;;22.50;1.00;;;;;;5055841;28;20033;-55
2023/06/03 04:59:53;;;;;;;5.50;5.00;;;22.60;1.00;;;;;;5054990;28;20028;-56
2023/06/03 05:02:23;;;;;;;6.40;5.80;;;22.50;1.00;;;;;;5056799;28;20032;-56
2023/06/03 05:04:49;;;;;;;5.97;5.47;;;22.50;1.00;;;;;;5054190;28;20033;-55
2023/06/03 05:07:15;;;;;;;5.68;5.18;;;22.60;1.00;;;;;;5054707;28;20082;-53
2023/06/03 05:09:41;;;;;;;5.78;5.07;;;22.60;1.00;;;;;;5055510;28;20124;-53
2023/06/03 05:12:07;;;;;;;6.40;5.80;;;22.60;1.00;;;;;;5056501;28;20021;-54
2023/06/03 05:14:33;;;;;;;6.43;5.90;;;22.60;1.00;;;;;;5054267;28;20029;-56
2023/06/03 05:16:58;;;;;;;7.13;5.97;;;22.60;1.00;;;;;;5056210;28;20383;-57
2023/06/03 05:19:24;;;;;;;6.38;5.88;;;22.60;1.00;;;;;;5055836;28;20028;-55
2023/06/03 05:21:50;;;;;;;7.03;6.32;;;22.60;1.00;;;;;;5054168;28;20600;-58
2023/06/03 05:24:15;;;;;;;6.28;5.25;;;22.60;1.00;;;;;;5054428;28;20036;-56
2023/06/03 05:26:46;;;;;;;6.80;6.20;;;22.70;1.00;;;;;;5056475;28;20126;-57
2023/06/03 05:29:12;;;;;;;6.85;6.25;;;22.70;1.00;;;;;;5054989;28;20386;-55
2023/06/03 05:31:38;;;;;;;7.28;6.68;;;22.70;1.00;;;;;;5056197;28;20025;-56
2023/06/03 05:34:03;;;;;;;7.20;6.57;;;22.60;1.00;;;;;;5048980;28;20120;-56
2023/06/03 05:36:29;;;;;;;8.50;6.47;;;22.70;1.00;;;;;;5046717;28;20033;-55
2023/06/03 05:38:56;;;;;;;6.55;5.95;;;22.60;1.00;;;;;;5053191;28;20029;-57
2023/06/03 05:41:21;;;;;;;7.57;6.88;;;22.70;1.00;;;;;;5044674;28;20053;-57
2023/06/03 05:43:47;;;;;;;8.77;7.05;;;22.70;1.00;;;;;;5055033;28;20029;-55
2023/06/03 05:46:13;;;;;;;7.03;6.32;;;22.70;1.00;;;;;;5046751;28;20450;-56
2023/06/03 05:48:38;;;;;;;6.22;5.60;;;22.60;1.00;;;;;;5049087;28;20112;-57
2023/06/03 05:51:04;;;;;;;6.38;5.78;;;22.70;1.00;;;;;;5053784;28;20470;-57
2023/06/03 05:53:30;;;;;;;6.43;5.55;;;22.70;1.00;;;;;;5053582;28;20091;-57
2023/06/03 05:55:59;;;;;;;6.28;5.75;;;22.60;1.00;;;;;;5055709;28;20081;-55
2023/06/03 05:58:25;;;;;;;7.10;6.28;;;22.60;1.00;;;;;;5044555;28;20021;-56
2023/06/03 06:00:52;;;;;;;7.03;6.32;;;22.60;1.00;;;;;;5055590;28;20052;-52
2023/06/03 06:03:18;;;;;;;6.90;6.40;;;22.70;1.00;;;;;;5054167;28;20064;-56
2023/06/03 06:05:45;;;;;;;7.43;6.05;;;22.70;1.00;;;;;;5052652;28;20025;-56
2023/06/03 06:08:10;;;;;;;7.50;6.80;;;22.80;1.00;;;;;;5053384;28;20029;-55
2023/06/03 06:10:36;;;;;;;8.25;7.40;;;22.70;1.00;;;;;;5055496;28;20497;-56
2023/06/03 06:13:02;;;;;;;9.75;7.57;;;22.80;1.00;;;;;;5051059;28;20041;-54
2023/06/03 06:15:30;;;;;;;8.98;8.18;;;22.80;1.00;;;;;;5055426;28;20036;-56
2023/06/03 06:17:56;;;;;;;8.30;7.47;;;22.70;1.00;;;;;;5052796;28;20028;-55
2023/06/03 06:20:22;;;;;;;9.15;8.20;;;22.80;1.00;;;;;;5047481;28;20021;-57
2023/06/03 06:22:48;;;;;;;8.57;7.80;;;22.80;1.00;;;;;;5047144;28;20082;-54
2023/06/03 06:25:15;;;;;;;9.63;8.77;;;22.90;1.00;;;;;;5055219;28;20083;-54
2023/06/03 06:27:41;;;;;;;8.88;8.07;;;22.80;1.00;;;;;;5052248;28;20029;-55
2023/06/03 06:30:08;;;;;;;9.23;8.32;;;22.70;1.00;;;;;;5054974;28;20116;-55
2023/06/03 06:32:57;;;;;;;9.20;8.27;;;22.70;1.00;;;;;;5052442;28;20036;-56
2023/06/03 06:35:26;;;;;;;9.98;9.07;;;22.80;1.00;;;;;;5053806;28;20462;-54
2023/06/03 06:37:56;;;;;;;8.00;7.30;;;22.80;1.00;;;;;;5053940;28;20083;-53
2023/06/03 06:40:26;;;;;;;9.30;8.40;;;22.90;1.00;;;;;;5052313;28;20029;-55
2023/06/03 06:42:52;;;;;;;8.27;7.57;;;22.90;1.00;;;;;;5054923;28;20522;-53
2023/06/03 06:45:27;;;;;;;9.35;8.55;;;22.90;1.00;;;;;;5052266;28;20033;-54
2023/06/03 06:48:08;;;;;;;8.57;7.85;;;22.90;1.00;;;;;;5041696;28;20035;-52
2023/06/03 06:50:58;;;;;;;9.70;8.90;;;23.00;1.00;;;;;;5052900;28;20425;-53
2023/06/03 06:53:27;;;;;;;9.73;8.75;;;23.00;1.00;;;;;;5054772;28;20491;-53
2023/06/03 06:56:03;;;;;;;8.82;7.95;;;23.00;1.00;;;;;;5053334;28;20036;-55
2023/06/03 06:58:37;;;;;;;9.93;8.75;;;23.00;1.00;;;;;;5053751;28;20095;-54
2023/06/03 07:01:05;;;;;;;10.30;9.40;;;23.10;1.00;;;;;;5051654;28;20025;-53
2023/06/03 07:03:31;;;;;;;9.73;8.90;;;23.20;1.00;;;;;;5052240;28;20028;-55
2023/06/03 07:05:58;;;;;;;10.30;9.40;;;23.20;1.00;;;;;;5054596;28;20344;-57
2023/06/03 07:08:25;;;;;;;10.55;9.63;;;23.30;1.00;;;;;;5052543;28;20386;-53
2023/06/03 07:10:54;;;;;;;10.18;8.73;;;23.30;1.00;;;;;;5054595;28;20056;-54
2023/06/03 07:13:20;;;;;;;11.88;10.75;;;23.30;1.00;;;;;;5052641;28;20068;-55
2023/06/03 07:15:46;;;;;;;11.18;10.18;;;23.40;1.00;;;;;;5050921;28;20075;-53
2023/06/03 07:18:12;;;;;;;10.07;9.10;;;23.40;1.00;;;;;;5052700;28;20032;-57
2023/06/03 07:20:42;;;;;;;10.90;9.90;;;23.50;1.00;;;;;;5052445;28;20039;-55
2023/06/03 07:26:32;;;;;;;9.85;8.95;;;23.50;1.00;;;;;;5050588;28;20494;-52
2023/06/03 07:28:57;;;;;;;8.85;7.90;;;23.40;1.00;;;;;;5053912;28;20536;-53
2023/06/03 07:31:24;;;;;;;7.65;6.95;;;23.50;1.00;;;;;;5048751;28;20069;-54
2023/06/03 07:33:51;;;;;;;6.80;6.18;;;23.50;1.00;;;;;;5052804;28;20110;-54
2023/06/03 07:36:21;;;;;;;5.95;5.35;;;23.40;1.00;;;;;;5054225;28;20475;-57
2023/06/03 07:38:53;;;;;;;5.95;5.28;;;23.50;1.00;;;;;;5052187;28;20032;-55
2023/06/03 07:41:40;;;;;;;6.95;5.70;;;23.50;1.00;;;;;;5051276;28;20138;-56
2023/06/03 07:44:09;;;;;;;4.88;4.38;;;23.40;1.00;;;;;;5053612;28;20108;-52
2023/06/03 07:46:46;;;;;;;4.97;4.57;;;23.50;1.00;;;;;;5047339;28;20512;-54
2023/06/03 07:49:22;;;;;;;5.65;3.55;;;23.50;1.00;;;;;;5052404;28;20024;-52
2023/06/03 07:51:50;;;;;;;4.10;3.28;;;23.60;1.00;;;;;;5052698;28;20033;-55
2023/06/03 07:54:17;;;;;;;5.55;4.22;;;23.50;1.00;;;;;;5053337;28;20036;-53
2023/06/03 07:56:43;;;;;;;5.00;4.25;;;23.40;1.00;;;;;;5052562;28;20032;-51
2023/06/03 07:59:10;;;;;;;4.60;4.20;;;23.50;1.00;;;;;;5053021;28;20079;-54
2023/06/03 08:01:36;;;;;;;3.67;3.38;;;23.50;1.00;;;;;;5050619;28;20029;-55
2023/06/03 08:04:29;;;;;;;4.50;4.13;;;23.50;1.00;;;;;;5051403;28;20029;-56
2023/06/03 08:07:00;;;;;;;3.80;3.50;;;23.60;99.90;;;;;;5033337;28;20108;-54
2023/06/03 08:09:32;;;;;;;4.72;3.72;;;23.60;1.00;;;;;;5044951;28;20025;-51
2023/06/03 08:12:00;;;;;;;4.28;3.00;;;23.60;1.00;;;;;;5040930;28;20498;-50
2023/06/03 08:14:26;;;;;;;3.47;3.20;;;23.60;99.90;;;;;;5050087;28;20490;-49
2023/06/03 08:16:53;;;;;;;3.78;3.47;;;23.60;99.90;;;;;;5046862;28;20017;-50
2023/06/03 08:19:19;;;;;;;4.75;3.88;;;23.70;99.90;;;;;;5053380;28;20402;-55
2023/06/03 08:21:44;;;;;;;5.32;3.88;;;23.80;99.90;;;;;;5050037;28;20013;-50
2023/06/03 08:24:10;;;;;;;3.80;3.50;;;23.80;99.90;;;;;;5053076;28;20501;-53
2023/06/03 08:26:36;;;;;;;4.32;3.83;;;23.80;99.90;;;;;;5051468;28;20502;-50
2023/06/03 08:29:05;;;;;;;3.28;3.08;;;23.90;99.90;;;;;;5051603;28;20025;-51
2023/06/03 08:31:34;;;;;;;3.03;2.80;;;23.90;99.90;;;;;;5053258;28;20035;-52
2023/06/03 08:34:05;;;;;;;2.40;2.00;;;24.00;99.90;;;;;;5049302;28;20490;-53
2023/06/03 08:36:32;;;;;;;2.50;2.30;;;24.00;99.90;;;;;;5053048;28;20385;-50
2023/06/03 08:38:58;;;;;;;2.60;2.40;;;24.00;99.90;;;;;;5051071;28;20025;-50
2023/06/03 08:41:37;;;;;;;2.95;2.67;;;24.00;99.90;;;;;;5050678;28;20071;-52
2023/06/03 08:44:20;;;;;;;2.83;2.63;;;24.10;99.90;;;;;;5052742;28;20055;-56
2023/06/03 08:47:16;;;;;;;2.90;2.70;;;24.10;99.90;;;;;;5050336;28;20112;-53
2023/06/03 08:49:53;;;;;;;3.30;2.60;;;24.20;99.90;;;;;;5043950;28;20509;-54
2023/06/03 08:52:21;;;;;;;3.30;3.00;;;24.20;99.90;;;;;;5051109;28;20060;-52
2023/06/03 08:54:47;;;;;;;3.78;3.38;;;24.30;99.90;;;;;;5052752;28;20082;-54
2023/06/03 08:57:19;;;;;;;5.93;3.75;;;24.30;99.90;;;;;;5051541;28;20391;-56
2023/06/03 08:59:45;;;;;;;4.30;3.90;;;24.30;99.90;;;;;;5041592;28;20021;-53
2023/06/03 09:02:12;;;;;;;3.53;3.22;;;24.20;99.90;;;;;;5052725;28;20029;-53
2023/06/03 09:04:39;;;;;;;3.28;3.08;;;24.30;99.90;;;;;;5051614;28;20048;-53
2023/06/03 09:07:07;;;;;;;2.95;2.70;;;24.40;99.90;;;;;;5051212;28;20148;-55
2023/06/03 09:09:34;;;;;;;3.20;3.00;;;24.40;99.90;;;;;;5045069;28;20028;-56
2023/06/03 09:12:02;;;;;;;3.70;3.20;;;24.50;99.90;;;;;;5052401;28;20074;-52
2023/06/03 09:14:30;;;;;;;3.85;3.53;;;24.50;99.90;;;;;;5050672;28;20124;-50
2023/06/03 09:16:56;;;;;;;3.80;3.50;;;24.60;99.90;;;;;;5052487;28;20112;-50
2023/06/03 09:19:25;;;;;;;5.00;4.50;;;24.60;99.90;;;;;;5048035;28;20036;-50
2023/06/03 09:21:52;;;;;;;5.38;4.88;;;24.70;99.90;;;;;;5038951;28;20554;-53
2023/06/03 09:24:17;;;;;;;5.97;5.45;;;24.70;99.90;;;;;;5050452;28;20489;-53
2023/06/03 09:26:43;;;;;;;5.97;5.47;;;24.90;99.90;;;;;;5052385;28;20025;-54
2023/06/03 09:29:09;;;;;;;8.10;7.35;;;24.80;99.90;;;;;;5051369;28;20021;-53
2023/06/03 09:31:34;;;;;;;7.07;6.47;;;24.90;99.90;;;;;;5048820;28;20040;-53
2023/06/03 09:34:01;;;;;;;7.93;7.18;;;25.00;99.90;;;;;;5046774;28;20108;-51
2023/06/03 09:36:27;;;;;;;7.45;6.75;;;25.00;99.90;;;;;;5042953;28;20029;-53
2023/06/03 09:38:55;;;;;;;7.00;6.43;;;25.00;99.90;;;;;;5051933;28;20390;-52
2023/06/03 09:41:26;;;;;;;7.22;6.63;;;25.00;99.90;;;;;;5055895;28;20029;-56
2023/06/03 09:44:03;;;;;;;8.07;7.28;;;25.00;99.90;;;;;;5055086;28;20037;-53
2023/06/03 09:46:33;;;;;;;7.88;7.28;;;25.10;99.90;;;;;;5054005;28;20048;-53
2023/06/03 09:49:14;;;;;;;9.70;7.90;;;25.20;99.90;;;;;;5056074;28;20055;-51
2023/06/03 09:51:44;;;;;;;9.57;8.73;;;25.30;99.90;;;;;;5052299;28;20040;-55
2023/06/03 09:54:18;;;;;;;7.32;6.72;;;25.20;99.90;;;;;;5052261;28;20041;-51
2023/06/03 09:56:48;;;;;;;9.85;8.57;;;25.40;99.90;;;;;;5053825;28;20023;-52
2023/06/03 09:59:14;;;;;;;9.02;8.23;;;25.40;99.90;;;;;;5055556;28;20029;-53
2023/06/03 10:01:41;;;;;;;8.40;7.65;;;25.40;99.90;;;;;;5045749;28;20116;-55
2023/06/03 10:04:07;;;;;;;9.23;8.38;;;25.40;99.90;;;;;;5048346;28;20053;-56
2023/06/03 10:06:37;;;;;;;7.28;6.68;;;25.40;99.90;;;;;;5042735;28;20032;-56
2023/06/03 10:09:25;;;;;;;8.45;7.75;;;25.40;99.90;;;;;;5053018;28;20102;-53
2023/06/03 10:11:52;;;;;;;7.22;6.63;;;25.40;99.90;;;;;;5043474;28;20075;-52
2023/06/03 10:14:25;;;;;;;8.00;7.30;;;25.40;99.90;;;;;;5054271;28;20041;-50
2023/06/03 10:17:12;;;;;;;7.65;6.95;;;25.50;99.90;;;;;;5055424;28;20017;-52
2023/06/03 10:19:43;;;;;;;7.65;6.95;;;25.60;99.90;;;;;;5052867;28;20393;-52
2023/06/03 10:22:11;;;;;;;6.78;6.15;;;25.60;99.90;;;;;;5053919;28;20463;-55
2023/06/03 10:24:39;;;;;;;7.18;6.50;;;25.70;99.90;;;;;;5055115;28;20025;-52
2023/06/03 10:27:06;;;;;;;6.20;5.70;;;25.60;99.90;;;;;;5053353;28;20027;-51
2023/06/03 10:29:33;;;;;;;5.43;4.78;;;25.60;99.90;;;;;;5054117;28;20394;-53
2023/06/03 10:32:04;;;;;;;7.63;6.82;;;25.80;99.90;;;;;;5046748;28;20017;-53
2023/06/03 10:34:31;;;;;;;7.00;6.40;;;25.90;99.90;;;;;;5053748;28;20068;-52
2023/06/03 10:36:57;;;;;;;5.80;5.30;;;26.00;99.90;;;;;;5051714;28;20071;-55
2023/06/03 10:39:25;;;;;;;6.38;5.88;;;26.00;99.90;;;;;;5055164;28;20494;-55
2023/06/03 10:41:54;;;;;;;5.35;4.85;;;26.00;99.90;;;;;;5052878;28;20049;-53
2023/06/03 10:44:20;;;;;;;5.63;5.03;;;26.20;99.90;;;;;;5053469;28;20017;-55
2023/06/03 10:47:23;;;;;;;6.97;5.63;;;26.30;99.90;;;;;;5052046;28;20037;-55
2023/06/03 10:49:55;;;;;;;5.90;5.40;;;26.40;99.90;;;;;;5034377;28;20075;-52
2023/06/03 10:52:54;;;;;;;6.40;5.65;;;26.50;99.90;;;;;;5053356;28;20402;-52
2023/06/03 10:55:40;;;;;;;5.65;5.15;;;26.60;99.90;;;;;;5051743;28;20043;-55
2023/06/03 10:58:17;;;;;;;4.93;4.40;;;26.40;99.90;;;;;;5041490;28;20017;-55
2023/06/03 11:00:56;;;;;;;6.10;5.60;;;26.30;99.90;;;;;;5052233;28;20033;-52
2023/06/03 11:03:44;;;;;;;5.65;5.25;;;26.50;99.90;;;;;;5054583;28;20036;-54
2023/06/03 11:06:18;;;;;;;6.20;5.65;;;26.80;99.90;;;;;;5050432;28;20032;-56
2023/06/03 11:09:05;;;;;;;6.63;6.03;;;27.00;99.90;;;;;;5034767;28;20383;-56
2023/06/03 11:11:40;;;;;;;4.97;4.57;;;27.10;99.90;;;;;;5048346;28;20021;-55
2023/06/03 11:14:06;;;;;;;3.90;3.70;;;27.20;99.90;;;;;;5052215;28;20502;-52
2023/06/03 11:17:00;;;;;;;3.63;3.38;;;27.40;99.90;;;;;;5054129;28;20029;-52
2023/06/03 11:19:45;;;;;;;5.32;4.90;;;27.80;99.90;;;;;;5047289;28;20502;-51
2023/06/03 11:22:12;;;;;;;3.35;3.15;;;28.00;99.90;;;;;;5052821;28;20037;-52
2023/06/03 11:24:38;;;;;;;2.78;2.58;;;28.40;99.90;;;;;;5051900;28;20036;-58
2023/06/03 11:27:10;;;;;;;3.10;2.80;;;28.70;99.90;;;;;;5054352;28;20124;-55
2023/06/03 11:29:45;;;;;;;2.90;2.70;;;29.00;99.90;;;;;;5049778;28;20029;-54
2023/06/03 11:32:32;;;;;;;3.17;2.88;;;29.30;99.90;;;;;;5052493;28;20031;-54
2023/06/03 11:35:03;;;;;;;3.03;2.83;;;29.70;99.90;;;;;;5052757;28;20067;-55
2023/06/03 11:37:41;;;;;;;3.67;2.83;;;29.90;99.90;;;;;;5053706;28;20036;-57
2023/06/03 11:40:07;;;;;;;2.50;2.40;;;30.30;99.90;;;;;;5048715;28;20029;-54
2023/06/03 11:42:46;;;;;;;2.95;2.33;;;30.70;99.90;;;;;;5053071;28;20115;-56
2023/06/03 11:45:27;;;;;;;2.42;2.30;;;31.20;99.90;;;;;;5041359;28;20038;-55
2023/06/03 11:48:05;;;;;;;3.13;2.90;;;31.60;99.90;;;;;;5053653;28;20036;-55
2023/06/03 11:50:47;;;;;;;2.63;2.42;;;32.50;99.90;;;;;;5040334;28;20039;-52
2023/06/03 11:53:30;;;;;;;3.58;3.38;;;33.80;99.90;;;;;;5052092;28;20048;-54
2023/06/03 11:56:08;;;;;;;4.50;3.90;;;35.20;99.90;;;;;;5053769;28;20032;-57
2023/06/03 11:58:35;;;;;;;6.30;3.92;;;36.70;99.90;;;;;;5052738;28;20032;-52
2023/06/03 12:01:17;;;;;;;3.50;3.30;;;38.50;99.90;;;;;;5051522;28;20471;-57
2023/06/03 12:04:02;;;;;;;4.22;3.60;;;39.40;99.90;;;;;;5053487;28;20026;-57
2023/06/03 12:06:37;;;;;;;3.88;3.65;;;38.00;99.90;;;;;;5053454;28;20029;-54
2023/06/03 12:09:03;;;;;;;3.92;3.63;;;38.70;99.90;;;;;;5047292;28;20041;-54
2023/06/03 12:11:31;;;;;;;5.13;4.57;;;36.90;99.90;;;;;;5051641;28;20545;-54
2023/06/03 12:13:57;;;;;;;6.40;5.80;;;37.00;99.90;;;;;;5053331;28;20037;-56
2023/06/03 12:16:33;;;;;;;5.82;4.78;;;34.40;99.90;;;;;;5047816;28;20027;-54
2023/06/03 12:19:03;;;;;;;5.53;5.13;;;33.40;99.90;;;;;;5051480;28;20036;-53
2023/06/03 12:21:30;;;;;;;5.82;5.40;;;32.20;99.90;;;;;;5053325;28;20032;-55
2023/06/03 12:23:56;;;;;;;5.07;4.68;;;33.70;99.90;;;;;;5049841;28;20086;-56
2023/06/03 12:26:25;;;;;;;4.93;4.60;;;36.50;99.90;;;;;;5041501;28;20108;-53
2023/06/03 12:28:54;;;;;;;4.68;4.38;;;38.00;99.90;;;;;;5049582;28;20021;-55
2023/06/03 12:31:20;;;;;;;5.00;4.63;;;38.20;99.90;;;;;;5053047;28;20432;-52
2023/06/03 12:33:46;;;;;;;4.40;4.00;;;38.60;99.90;;;;;;5049360;28;20036;-51
2023/06/03 12:36:13;;;;;;;5.80;4.22;;;39.30;99.90;;;;;;5053006;28;20056;-52
2023/06/03 12:38:59;;;;;;;4.40;4.10;;;39.80;99.90;;;;;;5050851;28;20057;-57
2023/06/03 12:41:25;;;;;;;4.50;4.10;;;41.10;99.90;;;;;;5052906;28;20521;-53
2023/06/03 12:44:06;;;;;;;4.45;4.05;;;41.50;99.90;;;;;;5051660;28;20021;-53
2023/06/03 12:46:31;;;;;;;4.97;4.05;;;39.90;99.90;;;;;;5042718;28;20095;-56
2023/06/03 12:49:15;;;;;;;5.53;5.13;;;37.90;99.90;;;;;;5045427;28;20037;-56
2023/06/03 12:51:41;;;;;;;;;;;37.40;99.90;;;;;;5052430;28;20025;-57
2023/06/03 12:54:07;;;;;;;4.93;4.60;;;38.20;99.90;;;;;;5052605;28;19917;-53
2023/06/03 12:56:42;;;;;;;4.00;3.70;;;39.00;99.90;;;;;;5048612;28;20021;-56
2023/06/03 12:59:08;;;;;;;4.65;4.35;;;38.10;99.90;;;;;;5050810;28;20025;-57
2023/06/03 13:01:35;;;;;;;5.45;4.95;;;36.80;99.90;;;;;;5043163;28;20021;-56
2023/06/03 13:04:01;;;;;;;5.00;4.60;;;36.00;99.90;;;;;;5050271;28;20028;-54
2023/06/03 13:06:27;;;;;;;3.55;3.35;;;35.30;99.90;;;;;;5052870;28;20040;-55
2023/06/03 13:08:52;;;;;;;4.80;4.45;;;34.80;99.90;;;;;;5050503;28;20029;-55
2023/06/03 13:11:19;;;;;;;3.70;3.50;;;34.80;99.90;;;;;;5052560;28;20414;-56